Flight Track Log - Related Links

Times and Time Zones

All times are in EDT time to prevent confusion due to time zone crossing. See the N93XP flight status page for this flight to view local times or setup timezone preferences in your user account.

Time Position Orientation Groundspeed Altitude Reporting Facility
EDT Latitude Longitude Course Direction KTS MPH feet Rate Location/Type
Thu 03:05:23 PM 41.5833 -87.3833 226° Southwest 205 236 2,400  Level Chicago TRACON
Thu 03:06:39 PM 41.5353 -87.4508 226° Southwest 235 270 5,500 2,739 Climbing Chicago Center
Thu 03:07:41 PM 41.5014 -87.5442 244° Southwest 234 269 8,700 2,613 Climbing Chicago Center
Thu 03:08:43 PM 41.4628 -87.6294 239° Southwest 266 306 10,900 1,984 Climbing Chicago Center
Thu 03:09:45 PM 41.4147 -87.7153 233° Southwest 290 334 12,800 1,742 Climbing Chicago Center
Thu 03:10:47 PM 41.3267 -87.7206 183° South 320 368 14,500 1,597 Climbing Chicago Center
Thu 03:11:49 PM 41.2350 -87.7158 178° South 326 375 16,100 1,452 Climbing Chicago Center
Thu 03:12:51 PM 41.1414 -87.7106 178° South 334 384 17,500 1,344 Climbing Chicago Center
Thu 03:13:54 PM 41.0236 -87.7042 178° South 349 402 18,900 1,296 Climbing Chicago Center
Thu 03:14:56 PM 40.9261 -87.6967 177° South 353 406 20,200 1,210 Climbing Chicago Center
Thu 03:15:58 PM 40.8258 -87.6911 178° South 359 413 21,400 1,028 Climbing Chicago Center
Thu 03:17:57 PM 40.6281 -87.6789 177° South 371 427 23,300 1,028 Climbing Indianapolis Center
Thu 03:18:59 PM 40.4997 -87.6717 178° South 382 440 24,500 1,065 Climbing Indianapolis Center
Thu 03:20:01 PM 40.3922 -87.6644 177° South 387 445 25,500 968 Climbing Indianapolis Center
Thu 03:21:03 PM 40.2833 -87.6586 178° South 391 450 26,500 720 Climbing Indianapolis Center
Thu 03:22:06 PM 40.1733 -87.6531 178° South 395 455 27,000 240 Climbing Indianapolis Center
Thu 03:23:08 PM 40.0594 -87.6442 177° South 408 470 27,000  Level Indianapolis Center
Thu 03:24:10 PM 39.9383 -87.6392 178° South 430 495 27,000  Level Indianapolis Center
Thu 03:25:12 PM 39.7894 -87.6294 177° South 447 514 27,000 -387 Level Indianapolis Center
Thu 03:26:14 PM 39.6636 -87.6225 178° South 453 521 26,200 -1,210 Descending Indianapolis Center
Thu 03:27:16 PM 39.5389 -87.6156 178° South 453 521 24,500 -1,742 Descending Indianapolis Center
Thu 03:28:18 PM 39.4172 -87.6075 177° South 444 511 22,600 -1,742 Descending Indianapolis Center
Thu 03:29:20 PM 39.2989 -87.6006 177° South 434 499 20,900 -1,839 Descending Indianapolis Center
Thu 03:30:22 PM 39.1589 -87.5933 178° South 428 493 18,800 -1,790 Descending Indianapolis Center
Thu 03:31:24 PM 39.0436 -87.5872 178° South 417 480 17,200 -1,597 Descending Indianapolis Center
Thu 03:32:26 PM 38.9350 -87.5800 177° South 394 453 15,500 -1,694 Descending Indianapolis Center
Thu 03:33:28 PM 38.8258 -87.5747 178° South 392 451 13,700 -1,742 Descending Indianapolis Center
Thu 03:34:30 PM 38.7222 -87.5583 173° South 376 433 11,900 -1,694 Descending Indianapolis Center
Thu 03:35:32 PM 38.6300 -87.5403 171° South 345 397 10,200 -1,839 Descending Indianapolis Center
Thu 03:36:34 PM 38.5361 -87.5211 171° South 294 338 8,100 -1,935 Descending Indianapolis Center
Thu 03:37:36 PM 38.4639 -87.5078 172° South 271 312 6,200 -1,839 Descending Indianapolis Center
Thu 03:38:38 PM 38.3947 -87.4942 171° South 261 300 4,300 -1,776 Descending Indianapolis Center
Thu 03:39:41 PM 38.3269 -87.4808 171° South 253 291 2,500 -864 Descending Indianapolis Center
Thu 03:40:43 PM 38.2669 -87.4683 171° South 237 273 2,500  Level Indianapolis Center
Thu 03:41:45 PM 38.2178 -87.4592 172° South 203 234 2,500 -97 Level Indianapolis Center
Thu 03:42:47 PM 38.1611 -87.4481 171° South 183 211 2,300 -435 Descending Indianapolis Center
Thu 03:43:49 PM 38.1161 -87.4469 179° South 180 207 1,600 -532 Descending Indianapolis Center
Thu 03:44:51 PM 38.0822 -87.4847 221° Southwest 167 192 1,200 -387 Descending Indianapolis Center
Thu 03:45:53 PM 38.0431 -87.5236 218° Southwest 162 186 800 -387 Descending Indianapolis Center
Thu 03:47:00 PM 38.0333 -87.5167 169° South  Level FlightAware Approximate
Thu 03:54:00 PM 38.0384 -87.5309 169° South  Level Estimated
Thu 03:55:00 PM 38.0384 -87.5309 169° South  Level Estimated

Login

Don't have an account? Register now (free) for customized features, flight alerts, and more!